Time,TemperatureF,DewpointF,PressureIn,WindDirection,WindDirectionDegrees,WindSpeedMPH,WindSpeedGustMPH,Humidity,HourlyPrecipIn,Conditions,Clouds,dailyrainin,SolarRadiationWatts/m^2,SoftwareType,DateUTC
2013-06-04 00:02:00,69.0,58.0,-100.00,ENE,78,2.0,7.0,68,0.00,,,0.00,0.000000,,2013-06-04 10:02:00,
2013-06-04 00:11:00,67.0,54.0,-100.00,ESE,103,6.0,15.0,63,0.00,,,0.00,0.000000,,2013-06-04 10:11:00,
2013-06-04 00:33:00,67.0,54.0,-100.00,ESE,103,6.0,15.0,63,0.00,,,0.00,0.000000,,2013-06-04 10:33:00,
2013-06-04 00:42:00,67.0,54.0,-100.00,ESE,103,6.0,15.0,63,0.00,,,0.00,0.000000,,2013-06-04 10:42:00,
2013-06-04 00:53:00,67.0,54.0,-100.00,ESE,103,6.0,15.0,63,0.00,,,0.00,0.000000,,2013-06-04 10:53:00,
2013-06-04 01:02:00,67.0,54.0,-100.00,ESE,103,6.0,15.0,63,0.00,,,0.00,0.000000,,2013-06-04 11:02:00,
2013-06-04 01:11:00,66.0,54.0,-100.00,ENE,78,3.0,12.0,66,0.00,,,-99.99,0.000000,,2013-06-04 11:11:00,
2013-06-04 01:32:00,66.0,54.0,-100.00,ENE,78,3.0,12.0,66,0.00,,,-99.99,0.000000,,2013-06-04 11:32:00,
2013-06-04 01:43:00,66.0,54.0,-100.00,ENE,78,3.0,12.0,66,0.00,,,-99.99,0.000000,,2013-06-04 11:43:00,
2013-06-04 01:52:00,66.0,54.0,-100.00,ENE,78,3.0,12.0,66,0.00,,,-99.99,0.000000,,2013-06-04 11:52:00,
2013-06-04 02:02:00,66.0,54.0,-100.00,ENE,78,3.0,12.0,66,0.00,,,-99.99,0.000000,,2013-06-04 12:02:00,
2013-06-04 02:11:00,64.0,55.0,-100.00,NNE,15,0.0,6.0,73,0.00,,,0.00,0.000000,,2013-06-04 12:11:00,
2013-06-04 02:32:00,64.0,55.0,-100.00,NNE,15,0.0,6.0,73,0.00,,,0.00,0.000000,,2013-06-04 12:32:00,
2013-06-04 02:42:00,64.0,55.0,-100.00,NNE,15,0.0,6.0,73,0.00,,,0.00,0.000000,,2013-06-04 12:42:00,
2013-06-04 02:52:00,64.0,55.0,-100.00,NNE,15,0.0,6.0,73,0.00,,,0.00,0.000000,,2013-06-04 12:52:00,
2013-06-04 03:02:00,64.0,55.0,-100.00,NNE,15,0.0,6.0,73,0.00,,,0.00,0.000000,,2013-06-04 13:02:00,
2013-06-04 03:11:00,66.0,55.0,-100.00,East,85,1.0,8.0,68,0.00,,,0.00,0.000000,,2013-06-04 13:11:00,
2013-06-04 03:32:00,66.0,55.0,-100.00,East,85,1.0,8.0,68,0.00,,,0.00,0.000000,,2013-06-04 13:32:00,
2013-06-04 03:42:00,66.0,55.0,-100.00,East,85,1.0,8.0,68,0.00,,,0.00,0.000000,,2013-06-04 13:42:00,
2013-06-04 03:52:00,66.0,55.0,-100.00,East,85,1.0,8.0,68,0.00,,,0.00,0.000000,,2013-06-04 13:52:00,
2013-06-04 04:02:00,66.0,55.0,-100.00,East,85,1.0,8.0,68,0.00,,,0.00,0.000000,,2013-06-04 14:02:00,
2013-06-04 04:11:00,66.0,56.0,-100.00,WSW,244,0.0,3.0,69,0.00,,,0.00,0.000000,,2013-06-04 14:11:00,
2013-06-04 04:32:00,66.0,56.0,-100.00,WSW,244,0.0,3.0,69,0.00,,,0.00,0.000000,,2013-06-04 14:32:00,
2013-06-04 04:43:00,66.0,56.0,-100.00,WSW,244,0.0,3.0,69,0.00,,,0.00,0.000000,,2013-06-04 14:43:00,
2013-06-04 04:52:00,66.0,56.0,-100.00,WSW,244,0.0,3.0,69,0.00,,,0.00,0.000000,,2013-06-04 14:52:00,
2013-06-04 05:02:00,66.0,56.0,-100.00,WSW,244,0.0,3.0,69,0.00,,,0.00,0.000000,,2013-06-04 15:02:00,
2013-06-04 05:11:00,65.0,54.0,-100.00,SSE,154,2.0,7.0,67,0.00,,,0.00,0.000000,,2013-06-04 15:11:00,
2013-06-04 05:33:00,65.0,54.0,-100.00,SSE,154,2.0,7.0,67,0.00,,,0.00,0.000000,,2013-06-04 15:33:00,
2013-06-04 05:42:00,65.0,54.0,-100.00,SSE,154,2.0,7.0,67,0.00,,,0.00,0.000000,,2013-06-04 15:42:00,
2013-06-04 05:53:00,65.0,54.0,-100.00,SSE,154,2.0,7.0,67,0.00,,,0.00,0.000000,,2013-06-04 15:53:00,
2013-06-04 06:03:00,65.0,54.0,-100.00,SSE,154,2.0,7.0,67,0.00,,,0.00,0.000000,,2013-06-04 16:03:00,
2013-06-04 06:11:00,66.0,55.0,-100.00,NE,36,0.0,4.0,68,0.00,,,0.00,2.000000,,2013-06-04 16:11:00,
2013-06-04 06:33:00,66.0,55.0,-100.00,NE,36,0.0,4.0,68,0.00,,,0.00,2.000000,,2013-06-04 16:33:00,
2013-06-04 06:42:00,66.0,55.0,-100.00,NE,36,0.0,4.0,68,0.00,,,0.00,2.000000,,2013-06-04 16:42:00,
2013-06-04 06:53:00,66.0,55.0,-100.00,NE,36,0.0,4.0,68,0.00,,,0.00,2.000000,,2013-06-04 16:53:00,
2013-06-04 07:02:00,66.0,55.0,-100.00,NE,36,0.0,4.0,68,0.00,,,0.00,2.000000,,2013-06-04 17:02:00,
2013-06-04 07:11:00,66.0,56.0,-100.00,ENE,64,0.0,3.0,71,0.00,,,0.00,37.000000,,2013-06-04 17:11:00,
2013-06-04 07:33:00,66.0,56.0,-100.00,ENE,64,0.0,3.0,71,0.00,,,0.00,37.000000,,2013-06-04 17:33:00,
2013-06-04 07:42:00,66.0,56.0,-100.00,ENE,64,0.0,3.0,71,0.00,,,0.00,37.000000,,2013-06-04 17:42:00,
2013-06-04 07:52:00,66.0,56.0,-100.00,ENE,64,0.0,3.0,71,0.00,,,0.00,37.000000,,2013-06-04 17:52:00,
2013-06-04 08:02:00,66.0,56.0,-100.00,ENE,64,0.0,3.0,71,0.00,,,0.00,37.000000,,2013-06-04 18:02:00,
2013-06-04 08:11:00,74.0,59.0,-100.00,South,181,0.0,3.0,60,0.00,,,0.00,168.000000,,2013-06-04 18:11:00,
2013-06-04 08:32:00,74.0,59.0,-100.00,South,181,0.0,3.0,60,0.00,,,0.00,168.000000,,2013-06-04 18:32:00,
2013-06-04 08:42:00,74.0,59.0,-100.00,South,181,0.0,3.0,60,0.00,,,0.00,168.000000,,2013-06-04 18:42:00,
2013-06-04 08:52:00,74.0,59.0,-100.00,South,181,0.0,3.0,60,0.00,,,0.00,168.000000,,2013-06-04 18:52:00,
2013-06-04 09:02:00,74.0,59.0,-100.00,South,181,0.0,3.0,60,0.00,,,0.00,168.000000,,2013-06-04 19:02:00,
2013-06-04 09:11:00,78.0,60.0,-100.00,West,266,0.0,6.0,54,0.00,,,0.00,630.000000,,2013-06-04 19:11:00,
2013-06-04 09:33:00,78.0,60.0,-100.00,West,266,0.0,6.0,54,0.00,,,0.00,630.000000,,2013-06-04 19:33:00,
2013-06-04 09:42:00,78.0,60.0,-100.00,West,266,0.0,6.0,54,0.00,,,0.00,630.000000,,2013-06-04 19:42:00,
2013-06-04 09:52:00,78.0,60.0,-100.00,West,266,0.0,6.0,54,0.00,,,0.00,630.000000,,2013-06-04 19:52:00,
2013-06-04 10:02:00,78.0,60.0,-100.00,West,266,0.0,6.0,54,0.00,,,0.00,630.000000,,2013-06-04 20:02:00,
2013-06-04 10:11:00,79.0,60.0,-100.00,SW,215,3.0,8.0,53,0.00,,,0.00,911.000000,,2013-06-04 20:11:00,
2013-06-04 10:32:00,79.0,60.0,-100.00,SW,215,3.0,8.0,53,0.00,,,0.00,911.000000,,2013-06-04 20:32:00,
2013-06-04 10:42:00,79.0,60.0,-100.00,SW,215,3.0,8.0,53,0.00,,,0.00,911.000000,,2013-06-04 20:42:00,
2013-06-04 10:53:00,79.0,60.0,-100.00,SW,215,3.0,8.0,53,0.00,,,0.00,911.000000,,2013-06-04 20:53:00,
2013-06-04 11:02:00,79.0,60.0,-100.00,SW,215,3.0,8.0,53,0.00,,,0.00,911.000000,,2013-06-04 21:02:00,
2013-06-04 11:11:00,79.0,62.0,-100.00,WSW,240,2.0,9.0,56,0.00,,,-99.99,954.000000,,2013-06-04 21:11:00,
2013-06-04 11:33:00,79.0,62.0,-100.00,WSW,240,2.0,9.0,56,0.00,,,-99.99,954.000000,,2013-06-04 21:33:00,
2013-06-04 11:42:00,79.0,62.0,-100.00,WSW,240,2.0,9.0,56,0.00,,,-99.99,954.000000,,2013-06-04 21:42:00,
2013-06-04 11:53:00,79.0,62.0,-100.00,WSW,240,2.0,9.0,56,0.00,,,-99.99,954.000000,,2013-06-04 21:53:00,
2013-06-04 12:02:00,79.0,62.0,-100.00,WSW,240,2.0,9.0,56,0.00,,,-99.99,954.000000,,2013-06-04 22:02:00,
2013-06-04 12:11:00,78.0,62.0,-100.00,SW,232,4.0,8.0,57,0.00,,,0.00,1187.000000,,2013-06-04 22:11:00,
2013-06-04 12:33:00,78.0,62.0,-100.00,SW,232,4.0,8.0,57,0.00,,,0.00,1187.000000,,2013-06-04 22:33:00,
2013-06-04 12:42:00,78.0,62.0,-100.00,SW,232,4.0,8.0,57,0.00,,,0.00,1187.000000,,2013-06-04 22:42:00,
2013-06-04 12:52:00,78.0,62.0,-100.00,SW,232,4.0,8.0,57,0.00,,,0.00,1187.000000,,2013-06-04 22:52:00,
2013-06-04 13:02:00,78.0,62.0,-100.00,SW,232,4.0,8.0,57,0.00,,,0.00,1187.000000,,2013-06-04 23:02:00,
2013-06-04 13:11:00,79.0,61.0,-100.00,WNW,287,2.0,9.0,54,0.00,,,0.00,1148.000000,,2013-06-04 23:11:00,
2013-06-04 13:32:00,79.0,61.0,-100.00,WNW,287,2.0,9.0,54,0.00,,,0.00,1148.000000,,2013-06-04 23:32:00,
2013-06-04 13:42:00,79.0,61.0,-100.00,WNW,287,2.0,9.0,54,0.00,,,0.00,1148.000000,,2013-06-04 23:42:00,
2013-06-04 13:52:00,79.0,61.0,-100.00,WNW,287,2.0,9.0,54,0.00,,,0.00,1148.000000,,2013-06-04 23:52:00,
2013-06-04 14:02:00,79.0,61.0,-100.00,WNW,287,2.0,9.0,54,0.00,,,0.00,1148.000000,,2013-06-05 00:02:00,
2013-06-04 14:11:00,81.0,61.0,-100.00,WNW,297,3.0,8.0,51,0.00,,,0.00,1245.000000,,2013-06-05 00:11:00,
2013-06-04 14:33:00,81.0,61.0,-100.00,WNW,297,3.0,8.0,51,0.00,,,0.00,1245.000000,,2013-06-05 00:33:00,
2013-06-04 14:42:00,81.0,61.0,-100.00,WNW,297,3.0,8.0,51,0.00,,,0.00,1245.000000,,2013-06-05 00:42:00,
2013-06-04 14:52:00,81.0,61.0,-100.00,WNW,297,3.0,8.0,51,0.00,,,0.00,1245.000000,,2013-06-05 00:52:00,
2013-06-04 15:02:00,81.0,61.0,-100.00,WNW,297,3.0,8.0,51,0.00,,,0.00,1245.000000,,2013-06-05 01:02:00,
2013-06-04 15:11:00,84.0,64.0,-100.00,West,279,1.0,7.0,52,0.00,,,0.00,1169.000000,,2013-06-05 01:11:00,
2013-06-04 15:32:00,84.0,64.0,-100.00,West,279,1.0,7.0,52,0.00,,,0.00,1169.000000,,2013-06-05 01:32:00,
2013-06-04 15:42:00,84.0,64.0,-100.00,West,279,1.0,7.0,52,0.00,,,0.00,1169.000000,,2013-06-05 01:42:00,
2013-06-04 15:52:00,84.0,64.0,-100.00,West,279,1.0,7.0,52,0.00,,,0.00,1169.000000,,2013-06-05 01:52:00,
2013-06-04 16:02:00,84.0,64.0,-100.00,West,279,1.0,7.0,52,0.00,,,0.00,1169.000000,,2013-06-05 02:02:00,
2013-06-04 16:11:00,80.0,62.0,-100.00,ENE,57,0.0,6.0,55,0.00,,,0.00,767.000000,,2013-06-05 02:11:00,
2013-06-04 16:32:00,80.0,62.0,-100.00,ENE,57,0.0,6.0,55,0.00,,,0.00,767.000000,,2013-06-05 02:32:00,
2013-06-04 16:42:00,80.0,62.0,-100.00,ENE,57,0.0,6.0,55,0.00,,,0.00,767.000000,,2013-06-05 02:42:00,
2013-06-04 16:52:00,80.0,62.0,-100.00,ENE,57,0.0,6.0,55,0.00,,,0.00,767.000000,,2013-06-05 02:52:00,
2013-06-04 17:02:00,80.0,62.0,-100.00,ENE,57,0.0,6.0,55,0.00,,,0.00,767.000000,,2013-06-05 03:02:00,
2013-06-04 17:11:00,80.0,62.0,-100.00,West,266,3.0,10.0,54,0.00,,,0.00,565.000000,,2013-06-05 03:11:00,
2013-06-04 17:33:00,80.0,62.0,-100.00,West,266,3.0,10.0,54,0.00,,,0.00,565.000000,,2013-06-05 03:33:00,
2013-06-04 17:43:00,80.0,62.0,-100.00,West,266,3.0,10.0,54,0.00,,,0.00,565.000000,,2013-06-05 03:43:00,
2013-06-04 17:53:00,80.0,62.0,-100.00,West,266,3.0,10.0,54,0.00,,,0.00,565.000000,,2013-06-05 03:53:00,
2013-06-04 18:02:00,80.0,62.0,-100.00,West,266,3.0,10.0,54,0.00,,,0.00,565.000000,,2013-06-05 04:02:00,
2013-06-04 18:11:00,79.0,62.0,-100.00,SSW,201,4.0,8.0,57,0.00,,,0.00,141.000000,,2013-06-05 04:11:00,
2013-06-04 18:33:00,79.0,62.0,-100.00,SSW,201,4.0,8.0,57,0.00,,,0.00,141.000000,,2013-06-05 04:33:00,
2013-06-04 18:42:00,79.0,62.0,-100.00,SSW,201,4.0,8.0,57,0.00,,,0.00,141.000000,,2013-06-05 04:42:00,
2013-06-04 18:53:00,79.0,62.0,-100.00,SSW,201,4.0,8.0,57,0.00,,,0.00,141.000000,,2013-06-05 04:53:00,
2013-06-04 19:02:00,79.0,62.0,-100.00,SSW,201,4.0,8.0,57,0.00,,,0.00,141.000000,,2013-06-05 05:02:00,
2013-06-04 19:11:00,73.0,61.0,-100.00,SW,216,0.0,8.0,67,0.00,,,0.00,50.000000,,2013-06-05 05:11:00,
2013-06-04 19:32:00,73.0,61.0,-100.00,SW,216,0.0,8.0,67,0.00,,,0.00,50.000000,,2013-06-05 05:32:00,
2013-06-04 19:42:00,73.0,61.0,-100.00,SW,216,0.0,8.0,67,0.00,,,0.00,50.000000,,2013-06-05 05:42:00,
2013-06-04 19:52:00,73.0,61.0,-100.00,SW,216,0.0,8.0,67,0.00,,,0.00,50.000000,,2013-06-05 05:52:00,
2013-06-04 20:02:00,73.0,61.0,-100.00,SW,216,0.0,8.0,67,0.00,,,0.00,50.000000,,2013-06-05 06:02:00,
2013-06-04 20:11:00,70.0,65.0,-100.00,South,187,0.0,4.0,83,0.00,,,0.00,3.000000,,2013-06-05 06:11:00,
2013-06-04 20:32:00,70.0,65.0,-100.00,South,187,0.0,4.0,83,0.00,,,0.00,3.000000,,2013-06-05 06:32:00,
2013-06-04 20:42:00,70.0,65.0,-100.00,South,187,0.0,4.0,83,0.00,,,0.00,3.000000,,2013-06-05 06:42:00,
2013-06-04 20:52:00,70.0,65.0,-100.00,South,187,0.0,4.0,83,0.00,,,0.00,3.000000,,2013-06-05 06:52:00,
2013-06-04 21:02:00,70.0,65.0,-100.00,South,187,0.0,4.0,83,0.00,,,0.00,3.000000,,2013-06-05 07:02:00,
2013-06-04 21:11:00,67.0,59.0,-100.00,NNE,19,0.0,0.0,75,0.00,,,0.00,0.000000,,2013-06-05 07:11:00,
2013-06-04 21:32:00,67.0,59.0,-100.00,NNE,19,0.0,0.0,75,0.00,,,0.00,0.000000,,2013-06-05 07:32:00,
2013-06-04 21:42:00,67.0,59.0,-100.00,NNE,19,0.0,0.0,75,0.00,,,0.00,0.000000,,2013-06-05 07:42:00,
2013-06-04 21:52:00,67.0,59.0,-100.00,NNE,19,0.0,0.0,75,0.00,,,0.00,0.000000,,2013-06-05 07:52:00,
2013-06-04 22:02:00,67.0,59.0,-100.00,NNE,19,0.0,0.0,75,0.00,,,0.00,0.000000,,2013-06-05 08:02:00,
2013-06-04 22:11:00,67.0,66.0,-100.00,SSW,197,0.0,2.0,96,0.00,,,0.00,0.000000,,2013-06-05 08:11:00,
2013-06-04 22:32:00,67.0,66.0,-100.00,SSW,197,0.0,2.0,96,0.00,,,0.00,0.000000,,2013-06-05 08:32:00,
2013-06-04 22:42:00,67.0,66.0,-100.00,SSW,197,0.0,2.0,96,0.00,,,0.00,0.000000,,2013-06-05 08:42:00,
2013-06-04 22:52:00,67.0,66.0,-100.00,SSW,197,0.0,2.0,96,0.00,,,0.00,0.000000,,2013-06-05 08:52:00,
2013-06-04 23:02:00,67.0,66.0,-100.00,SSW,197,0.0,2.0,96,0.00,,,0.00,0.000000,,2013-06-05 09:02:00,
2013-06-04 23:11:00,65.0,64.0,-100.00,South,183,0.0,0.0,97,0.00,,,0.00,0.000000,,2013-06-05 09:11:00,
2013-06-04 23:33:00,65.0,64.0,-100.00,South,183,0.0,0.0,97,0.00,,,0.00,0.000000,,2013-06-05 09:33:00,
2013-06-04 23:43:00,65.0,64.0,-100.00,South,183,0.0,0.0,97,0.00,,,0.00,0.000000,,2013-06-05 09:43:00,
2013-06-04 23:53:00,65.0,64.0,-100.00,South,183,0.0,0.0,97,0.00,,,0.00,0.000000,,2013-06-05 09:53:00,